TAF Text Data
IDs:
Format:
Raw Decoded Include METAR

Data at: 1837 UTC 22 May 2019

KAVL 221737Z 2218/2318 15005KT P6SM SCT025
  FM230000 14003KT P6SM BKN045
  FM230400 VRB02KT P6SM BKN016
  PROB30 2304/2310 4SM -SHRA OVC009
  FM231000 VRB02KT 5SM BR BKN009
  FM231400 20003KT P6SM SCT025 BKN040
  PROB30 2314/2318 4SM TSRA BKN025CB